createdAt,value
2022-08-17T00:00:15.766Z,13.23
2022-08-17T00:03:00.331Z,14.90
2022-08-17T00:05:31.361Z,14.50
2022-08-17T00:07:58.445Z,14.00
2022-08-17T00:10:25.078Z,13.50
2022-08-17T00:12:53.108Z,13.55
2022-08-17T00:15:19.830Z,13.60
2022-08-17T00:17:46.334Z,13.23
2022-08-17T00:20:12.724Z,14.80
2022-08-17T00:22:39.121Z,14.32
2022-08-17T00:25:05.558Z,13.43
2022-08-17T00:27:31.885Z,13.93
2022-08-17T00:29:58.399Z,13.18
2022-08-17T00:33:13.920Z,14.07
2022-08-17T00:35:11.335Z,14.27
2022-08-17T00:37:37.666Z,13.70
2022-08-17T00:40:03.999Z,15.68
2022-08-17T00:42:31.381Z,12.63
2022-08-17T00:44:57.873Z,14.68
2022-08-17T00:47:24.374Z,13.27
2022-08-17T00:49:50.907Z,14.68
2022-08-17T00:52:17.357Z,13.18
2022-08-17T00:54:44.905Z,12.90
2022-08-17T00:57:11.202Z,12.90
2022-08-17T00:59:37.844Z,13.13
2022-08-17T01:02:04.482Z,13.52
2022-08-17T01:04:31.401Z,13.65
2022-08-17T01:06:57.895Z,12.68
2022-08-17T01:09:24.431Z,11.98
2022-08-17T01:11:50.858Z,14.30
2022-08-17T01:14:19.854Z,12.43
2022-08-17T01:16:46.263Z,12.73
2022-08-17T01:19:12.770Z,14.15
2022-08-17T01:21:39.306Z,14.77
2022-08-17T01:24:05.721Z,14.82
2022-08-17T01:26:33.254Z,13.68
2022-08-17T01:28:59.795Z,12.90
2022-08-17T01:31:26.242Z,13.02
2022-08-17T01:33:52.743Z,13.68
2022-08-17T01:36:19.366Z,12.93
2022-08-17T01:38:45.984Z,12.60
2022-08-17T01:41:12.488Z,13.50
2022-08-17T01:43:39.087Z,13.57
2022-08-17T01:46:05.913Z,13.30
2022-08-17T01:48:32.850Z,13.65
2022-08-17T01:50:59.259Z,13.73
2022-08-17T01:53:25.654Z,13.02
2022-08-17T01:55:52.179Z,14.45
2022-08-17T01:58:20.575Z,13.80
2022-08-17T02:01:00.044Z,13.70
2022-08-17T02:03:27.800Z,12.48
2022-08-17T02:05:54.143Z,13.32
2022-08-17T02:08:20.710Z,12.70
2022-08-17T02:11:04.025Z,13.55
2022-08-17T02:13:37.853Z,13.40
2022-08-17T02:16:10.562Z,13.82
2022-08-17T02:18:36.975Z,11.88
2022-08-17T02:21:03.498Z,13.63
2022-08-17T02:23:29.889Z,13.85
2022-08-17T02:25:56.229Z,12.13
2022-08-17T02:28:22.602Z,12.80
2022-08-17T02:31:01.462Z,12.35
2022-08-17T02:33:42.110Z,11.82
2022-08-17T02:36:09.699Z,13.77
2022-08-17T02:38:36.179Z,13.32
2022-08-17T02:41:02.626Z,13.45
2022-08-17T02:43:30.241Z,12.70
2022-08-17T02:45:56.622Z,12.73
2022-08-17T02:48:30.992Z,12.20
2022-08-17T02:50:58.052Z,13.07
2022-08-17T02:53:24.605Z,16.20
2022-08-17T02:55:52.127Z,13.73
2022-08-17T02:58:35.031Z,13.40
2022-08-17T03:01:02.129Z,12.88
2022-08-17T03:03:30.320Z,12.23
2022-08-17T03:06:00.941Z,12.70
2022-08-17T03:08:28.771Z,13.23
2022-08-17T03:10:55.112Z,12.93
2022-08-17T03:13:21.423Z,13.57
2022-08-17T03:15:48.062Z,12.68
2022-08-17T03:18:24.257Z,12.77
2022-08-17T03:20:51.652Z,13.60
2022-08-17T03:23:23.710Z,12.60
2022-08-17T03:25:53.157Z,12.80
2022-08-17T03:28:20.040Z,13.30
2022-08-17T03:30:46.507Z,13.35
2022-08-17T03:33:12.887Z,13.10
2022-08-17T03:35:40.983Z,11.98
2022-08-17T03:38:07.345Z,12.05
2022-08-17T03:40:55.403Z,13.52
2022-08-17T03:43:20.392Z,12.40
2022-08-17T03:45:46.861Z,13.00
2022-08-17T03:48:13.343Z,13.30
2022-08-17T03:50:39.734Z,12.93
2022-08-17T03:53:06.281Z,12.32
2022-08-17T03:55:36.316Z,12.43
2022-08-17T03:58:03.062Z,12.43
2022-08-17T04:00:29.597Z,12.35
2022-08-17T04:02:57.274Z,12.70
2022-08-17T04:05:23.721Z,13.35
2022-08-17T04:07:50.267Z,13.52
2022-08-17T04:10:16.742Z,12.07
2022-08-17T04:12:43.135Z,13.32
2022-08-17T04:15:09.705Z,12.32
2022-08-17T04:17:36.109Z,12.65
2022-08-17T04:20:05.158Z,12.73
2022-08-17T04:22:34.208Z,12.32
2022-08-17T04:25:01.293Z,12.75
2022-08-17T04:27:27.761Z,11.73
2022-08-17T04:29:56.119Z,12.20
2022-08-17T04:33:03.409Z,12.63
2022-08-17T04:35:09.274Z,12.30
2022-08-17T04:37:35.674Z,12.95
2022-08-17T04:40:04.269Z,12.35
2022-08-17T04:42:31.310Z,12.77
2022-08-17T04:44:57.675Z,13.13
2022-08-17T04:47:24.567Z,12.68
2022-08-17T04:49:51.141Z,12.23
2022-08-17T04:52:32.316Z,12.80
2022-08-17T04:55:03.842Z,12.95
2022-08-17T04:57:30.506Z,11.75
2022-08-17T05:00:06.308Z,11.43
2022-08-17T05:02:32.773Z,11.90
2022-08-17T05:04:59.404Z,12.27
2022-08-17T05:07:31.315Z,12.70
2022-08-17T05:09:58.014Z,12.73
2022-08-17T05:12:24.369Z,12.75
2022-08-17T05:14:50.966Z,12.75
2022-08-17T05:17:17.387Z,12.40
2022-08-17T05:19:51.738Z,12.32
2022-08-17T05:22:18.495Z,11.88
2022-08-17T05:24:53.468Z,12.25
2022-08-17T05:27:20.660Z,11.90
2022-08-17T05:29:46.964Z,12.25
2022-08-17T05:32:38.643Z,16.52
2022-08-17T05:35:00.271Z,14.27
2022-08-17T05:37:27.279Z,13.80
2022-08-17T05:39:53.760Z,17.13
2022-08-17T05:42:20.178Z,15.27
2022-08-17T05:44:46.480Z,18.83
2022-08-17T05:47:12.824Z,19.45
2022-08-17T05:49:39.167Z,15.65
2022-08-17T05:52:05.778Z,19.63
2022-08-17T05:54:32.085Z,14.93
2022-08-17T05:56:58.499Z,14.77
2022-08-17T05:59:24.938Z,15.15
2022-08-17T06:01:51.466Z,14.70
2022-08-17T06:04:17.788Z,14.45
2022-08-17T06:06:44.181Z,15.63
2022-08-17T06:09:10.455Z,16.90
2022-08-17T06:11:37.206Z,16.73
2022-08-17T06:14:03.754Z,16.98
2022-08-17T06:16:33.376Z,15.63
2022-08-17T06:19:00.888Z,15.88
2022-08-17T06:21:27.485Z,14.98
2022-08-17T06:23:58.578Z,16.50
2022-08-17T06:26:25.811Z,16.20
2022-08-17T06:28:56.733Z,15.88
2022-08-17T06:31:23.162Z,15.50
2022-08-17T06:33:49.694Z,17.63
2022-08-17T06:36:16.225Z,16.25
2022-08-17T06:38:42.667Z,16.17
2022-08-17T06:41:09.215Z,16.00
2022-08-17T06:43:35.624Z,16.73
2022-08-17T06:46:02.095Z,16.45
2022-08-17T06:48:30.724Z,16.75
2022-08-17T06:50:57.217Z,16.02
2022-08-17T06:53:23.733Z,15.68
2022-08-17T06:55:50.076Z,17.55
2022-08-17T06:58:16.986Z,18.73
2022-08-17T07:00:43.534Z,17.52
2022-08-17T07:03:10.333Z,17.98
2022-08-17T07:05:37.153Z,18.30
2022-08-17T07:08:05.052Z,18.75
2022-08-17T07:10:31.438Z,18.63
2022-08-17T07:12:57.883Z,19.15
2022-08-17T07:15:24.543Z,19.70
2022-08-17T07:17:51.017Z,20.33
2022-08-17T07:20:17.563Z,22.50
2022-08-17T07:22:57.730Z,21.15
2022-08-17T07:25:27.003Z,20.17
2022-08-17T07:27:53.447Z,21.73
2022-08-17T07:30:20.113Z,22.77
2022-08-17T07:32:46.457Z,24.25
2022-08-17T07:35:15.456Z,22.20
2022-08-17T07:37:42.266Z,24.00
2022-08-17T07:40:15.850Z,24.02
2022-08-17T07:42:46.727Z,24.38
2022-08-17T07:45:13.520Z,27.30
2022-08-17T07:47:39.903Z,23.45
2022-08-17T07:50:06.913Z,25.70
2022-08-17T07:52:51.049Z,25.50
2022-08-17T07:55:18.683Z,21.95
2022-08-17T07:57:45.089Z,23.10
2022-08-17T08:00:15.310Z,19.75
2022-08-17T08:02:42.919Z,22.40
2022-08-17T08:05:10.140Z,22.80
2022-08-17T08:07:36.469Z,21.40
2022-08-17T08:10:02.984Z,20.52
2022-08-17T08:12:33.701Z,20.73
2022-08-17T08:15:00.351Z,20.70
2022-08-17T08:17:27.183Z,21.98
2022-08-17T08:19:53.875Z,22.77
2022-08-17T08:22:20.195Z,23.52
2022-08-17T08:24:46.665Z,24.27
2022-08-17T08:27:13.016Z,23.15
2022-08-17T08:29:39.615Z,24.33
2022-08-17T08:32:05.924Z,20.38
2022-08-17T08:34:53.449Z,21.67
2022-08-17T08:37:27.475Z,22.60
2022-08-17T08:39:59.226Z,21.48
2022-08-17T08:42:27.125Z,23.45
2022-08-17T08:44:59.681Z,22.13
2022-08-17T08:47:30.610Z,23.70
2022-08-17T08:50:04.503Z,25.30
2022-08-17T08:52:31.806Z,20.55
2022-08-17T08:54:58.311Z,22.55
2022-08-17T08:57:30.961Z,22.75
2022-08-17T09:00:00.044Z,25.55
2022-08-17T09:02:26.543Z,25.13
2022-08-17T09:05:13.463Z,24.88
2022-08-17T09:07:39.178Z,25.08
2022-08-17T09:10:05.896Z,26.75
2022-08-17T09:12:33.188Z,25.75
2022-08-17T09:14:59.614Z,26.65
2022-08-17T09:17:25.928Z,25.13
2022-08-17T09:19:52.359Z,28.35
2022-08-17T09:22:18.836Z,25.27
2022-08-17T09:24:45.316Z,25.63
2022-08-17T09:27:11.583Z,26.25
2022-08-17T09:29:38.206Z,25.45
2022-08-17T09:32:04.532Z,24.13
2022-08-17T09:34:33.054Z,26.98
2022-08-17T09:36:59.495Z,25.27
2022-08-17T09:39:26.082Z,25.92
2022-08-17T09:41:52.494Z,25.35
2022-08-17T09:44:22.645Z,25.25
2022-08-17T09:46:50.289Z,25.98
2022-08-17T09:49:23.180Z,24.55
2022-08-17T09:51:51.546Z,23.42
2022-08-17T09:54:37.961Z,26.15
2022-08-17T09:57:27.924Z,26.38
2022-08-17T09:59:50.875Z,25.55
2022-08-17T10:02:17.455Z,23.73
2022-08-17T10:04:43.990Z,24.63
2022-08-17T10:07:10.380Z,24.77
2022-08-17T10:09:36.682Z,26.02
2022-08-17T10:12:04.012Z,22.98
2022-08-17T10:14:36.758Z,24.20
2022-08-17T10:17:04.492Z,23.80
2022-08-17T10:19:31.149Z,23.80
2022-08-17T10:22:00.933Z,23.60
2022-08-17T10:24:28.327Z,24.80
2022-08-17T10:26:56.662Z,23.35
2022-08-17T10:29:23.859Z,23.13
2022-08-17T10:31:53.512Z,22.92
2022-08-17T10:34:19.787Z,23.70
2022-08-17T10:36:46.142Z,23.77
2022-08-17T10:39:12.497Z,23.55
2022-08-17T10:41:40.486Z,22.55
2022-08-17T10:44:39.217Z,24.77
2022-08-17T10:46:53.333Z,22.75
2022-08-17T10:49:19.662Z,22.75
2022-08-17T10:51:46.486Z,22.67
2022-08-17T10:54:22.301Z,23.00
2022-08-17T10:56:48.704Z,23.88
2022-08-17T10:59:15.034Z,22.15
2022-08-17T11:01:41.442Z,23.02
2022-08-17T11:04:07.736Z,23.15
2022-08-17T11:06:34.363Z,23.05
2022-08-17T11:09:00.749Z,22.75
2022-08-17T11:11:27.153Z,21.83
2022-08-17T11:13:53.534Z,22.27
2022-08-17T11:16:19.911Z,22.73
2022-08-17T11:18:47.287Z,22.80
2022-08-17T11:21:13.851Z,21.83
2022-08-17T11:23:40.354Z,20.23
2022-08-17T11:26:06.647Z,22.33
2022-08-17T11:28:32.970Z,22.90
2022-08-17T11:30:59.340Z,22.17
2022-08-17T11:33:26.750Z,22.35
2022-08-17T11:35:53.379Z,22.33
2022-08-17T11:38:19.943Z,22.60
2022-08-17T11:40:46.405Z,22.23
2022-08-17T11:43:12.779Z,22.88
2022-08-17T11:45:40.397Z,22.27
2022-08-17T11:48:27.177Z,22.38
2022-08-17T11:50:53.178Z,21.10
2022-08-17T11:53:19.741Z,22.20
2022-08-17T11:55:46.185Z,21.85
2022-08-17T11:58:12.814Z,22.95
2022-08-17T12:00:39.314Z,22.83
2022-08-17T12:03:06.229Z,22.02
2022-08-17T12:05:32.942Z,22.48
2022-08-17T12:07:59.260Z,22.90
2022-08-17T12:10:25.621Z,21.27
2022-08-17T12:12:53.218Z,22.88
2022-08-17T12:15:19.522Z,23.98
2022-08-17T12:17:45.860Z,25.02
2022-08-17T12:20:12.858Z,22.98
2022-08-17T12:22:39.388Z,21.52
2022-08-17T12:25:06.415Z,24.67
2022-08-17T12:27:52.992Z,24.25
2022-08-17T12:30:19.258Z,23.88
2022-08-17T12:32:45.708Z,25.02
2022-08-17T12:35:12.027Z,24.77
2022-08-17T12:37:38.323Z,23.73
2022-08-17T12:40:04.886Z,24.10
2022-08-17T12:42:31.349Z,26.38
2022-08-17T12:44:59.070Z,23.02
2022-08-17T12:47:25.470Z,23.20
2022-08-17T12:49:55.810Z,22.85
2022-08-17T12:52:22.292Z,22.60
2022-08-17T12:54:48.749Z,23.02
2022-08-17T12:57:15.087Z,24.20
2022-08-17T12:59:41.664Z,22.90
2022-08-17T13:02:08.376Z,23.20
2022-08-17T13:04:35.099Z,22.15
2022-08-17T13:07:01.538Z,21.60
2022-08-17T13:09:35.691Z,22.08
2022-08-17T13:12:06.362Z,21.88
2022-08-17T13:14:34.194Z,23.00
2022-08-17T13:17:00.754Z,21.92
2022-08-17T13:19:39.693Z,21.70
2022-08-17T13:22:08.166Z,21.83
2022-08-17T13:24:38.391Z,22.77
2022-08-17T13:27:08.107Z,22.73
2022-08-17T13:29:35.122Z,22.42
2022-08-17T13:32:04.385Z,21.45
2022-08-17T13:34:31.530Z,22.30
2022-08-17T13:36:59.697Z,21.58
2022-08-17T13:39:26.875Z,22.52
2022-08-17T13:41:54.270Z,20.17
2022-08-17T13:44:20.693Z,20.70
2022-08-17T13:46:47.346Z,21.45
2022-08-17T13:49:19.373Z,22.00
2022-08-17T13:51:45.746Z,19.20
2022-08-17T13:54:12.101Z,19.30
2022-08-17T13:56:39.495Z,19.42
2022-08-17T13:59:06.285Z,20.58
2022-08-17T14:01:32.744Z,20.33
2022-08-17T14:03:59.511Z,20.20
2022-08-17T14:06:52.334Z,19.25
2022-08-17T14:09:12.223Z,20.42
2022-08-17T14:11:38.647Z,19.75
2022-08-17T14:14:05.192Z,20.25
2022-08-17T14:16:31.842Z,21.90
2022-08-17T14:18:58.213Z,22.23
2022-08-17T14:21:24.623Z,21.20
2022-08-17T14:23:54.570Z,20.25
2022-08-17T14:26:21.659Z,20.13
2022-08-17T14:28:56.247Z,21.85
2022-08-17T14:31:23.125Z,21.65
2022-08-17T14:33:49.458Z,21.50
2022-08-17T14:36:15.809Z,21.40
2022-08-17T14:38:42.438Z,21.20
2022-08-17T14:41:08.833Z,20.60
2022-08-17T14:43:35.179Z,19.77
2022-08-17T14:46:01.674Z,21.45
2022-08-17T14:48:28.606Z,20.55
2022-08-17T14:50:55.078Z,20.80
2022-08-17T14:53:21.566Z,20.83
2022-08-17T14:55:47.957Z,20.85
2022-08-17T14:58:15.070Z,22.88
2022-08-17T15:00:41.417Z,21.80
2022-08-17T15:03:08.115Z,22.20
2022-08-17T15:05:34.825Z,23.20
2022-08-17T15:08:01.491Z,22.73
2022-08-17T15:10:27.858Z,22.88
2022-08-17T15:12:54.250Z,23.40
2022-08-17T15:15:20.621Z,22.80
2022-08-17T15:17:46.979Z,23.08
2022-08-17T15:20:15.000Z,22.98
2022-08-17T15:22:41.818Z,21.92
2022-08-17T15:25:08.211Z,22.60
2022-08-17T15:27:34.936Z,21.85
2022-08-17T15:30:01.316Z,23.33
2022-08-17T15:32:27.732Z,22.73
2022-08-17T15:34:54.294Z,22.23
2022-08-17T15:37:20.937Z,21.67
2022-08-17T15:39:48.715Z,21.05
2022-08-17T15:42:15.032Z,21.45
2022-08-17T15:44:41.463Z,22.08
2022-08-17T15:47:07.892Z,21.00
2022-08-17T15:49:34.234Z,21.35
2022-08-17T15:52:00.583Z,21.80
2022-08-17T15:54:26.962Z,21.55
2022-08-17T15:57:00.921Z,21.27
2022-08-17T15:59:27.704Z,21.20
2022-08-17T16:03:15.301Z,20.50
2022-08-17T16:04:43.880Z,21.67
2022-08-17T16:07:10.567Z,20.40
2022-08-17T16:09:37.605Z,20.08
2022-08-17T16:12:03.990Z,19.58
2022-08-17T16:14:33.781Z,19.98
2022-08-17T16:17:01.790Z,20.05
2022-08-17T16:19:28.225Z,19.27
2022-08-17T16:21:54.978Z,19.98
2022-08-17T16:24:21.633Z,20.10
2022-08-17T16:26:47.935Z,20.58
2022-08-17T16:29:14.476Z,20.48
2022-08-17T16:31:40.877Z,19.27
2022-08-17T16:34:17.284Z,20.27
2022-08-17T16:36:54.812Z,18.75
2022-08-17T16:39:22.333Z,19.92
2022-08-17T16:41:49.021Z,18.83
2022-08-17T16:44:15.760Z,19.45
2022-08-17T16:46:45.615Z,19.83
2022-08-17T16:49:12.434Z,20.00
2022-08-17T16:51:54.074Z,18.98
2022-08-17T16:54:22.930Z,19.10
2022-08-17T16:56:49.283Z,18.40
2022-08-17T16:59:30.978Z,18.80
2022-08-17T17:02:02.513Z,19.45
2022-08-17T17:04:28.996Z,18.33
2022-08-17T17:07:01.802Z,18.15
2022-08-17T17:09:28.298Z,18.20
2022-08-17T17:11:54.786Z,19.20
2022-08-17T17:14:21.117Z,19.17
2022-08-17T17:16:47.481Z,17.27
2022-08-17T17:19:13.965Z,17.25
2022-08-17T17:21:40.775Z,17.88
2022-08-17T17:24:07.231Z,18.55
2022-08-17T17:26:33.890Z,17.45
2022-08-17T17:29:00.312Z,18.33
2022-08-17T17:31:26.896Z,16.98
2022-08-17T17:33:53.216Z,17.88
2022-08-17T17:36:19.710Z,16.83
2022-08-17T17:38:46.092Z,16.45
2022-08-17T17:41:12.470Z,16.88
2022-08-17T17:43:40.583Z,17.67
2022-08-17T17:46:27.175Z,18.17
2022-08-17T17:48:54.090Z,17.50
2022-08-17T17:52:03.618Z,16.83
2022-08-17T17:54:06.858Z,16.13
2022-08-17T17:56:42.982Z,16.67
2022-08-17T17:59:12.619Z,17.95
2022-08-17T18:01:39.520Z,16.13
2022-08-17T18:04:07.082Z,17.33
2022-08-17T18:06:45.330Z,16.87
2022-08-17T18:09:11.698Z,17.65
2022-08-17T18:11:45.915Z,17.35
2022-08-17T18:14:18.531Z,17.17
2022-08-17T18:16:44.910Z,17.77
2022-08-17T18:19:11.250Z,17.08
2022-08-17T18:21:37.992Z,17.25
2022-08-17T18:24:04.345Z,17.63
2022-08-17T18:26:30.750Z,16.90
2022-08-17T18:28:58.537Z,17.23
2022-08-17T18:31:25.018Z,17.23
2022-08-17T18:33:52.789Z,16.73
2022-08-17T18:36:19.221Z,15.90
2022-08-17T18:38:45.623Z,16.75
2022-08-17T18:41:12.010Z,17.38
2022-08-17T18:43:43.943Z,15.75
2022-08-17T18:46:28.219Z,16.52
2022-08-17T18:48:55.795Z,16.95
2022-08-17T18:54:08.917Z,16.42
2022-08-17T18:56:35.218Z,16.60
2022-08-17T18:59:01.581Z,16.27
2022-08-17T19:01:42.071Z,15.90
2022-08-17T19:04:14.811Z,17.05
2022-08-17T19:06:41.185Z,16.77
2022-08-17T19:09:10.536Z,16.98
2022-08-17T19:11:36.958Z,16.77
2022-08-17T19:14:03.418Z,16.75
2022-08-17T19:16:29.756Z,17.10
2022-08-17T19:18:56.113Z,16.30
2022-08-17T19:21:23.179Z,16.88
2022-08-17T19:23:53.877Z,16.52
2022-08-17T19:26:54.747Z,16.60
2022-08-17T19:29:07.266Z,16.83
2022-08-17T19:31:33.727Z,17.08
2022-08-17T19:34:00.088Z,16.55
2022-08-17T19:36:26.718Z,16.15
2022-08-17T19:38:53.313Z,17.08
2022-08-17T19:41:19.664Z,17.50
2022-08-17T19:43:46.153Z,16.08
2022-08-17T19:46:12.659Z,16.70
2022-08-17T19:48:38.977Z,16.65
2022-08-17T19:51:05.336Z,15.43
2022-08-17T19:53:47.789Z,16.35
2022-08-17T19:56:18.135Z,16.60
2022-08-17T19:58:44.730Z,16.13
2022-08-17T20:01:11.559Z,15.90
2022-08-17T20:03:38.011Z,16.05
2022-08-17T20:06:13.511Z,16.25
2022-08-17T20:08:40.591Z,15.88
2022-08-17T20:11:06.966Z,15.90
2022-08-17T20:13:34.046Z,16.02
2022-08-17T20:16:00.532Z,15.82
2022-08-17T20:18:26.904Z,15.50
2022-08-17T20:20:54.794Z,15.65
2022-08-17T20:23:22.246Z,15.27
2022-08-17T20:25:48.612Z,16.45
2022-08-17T20:28:14.982Z,15.80
2022-08-17T20:30:41.341Z,15.32
2022-08-17T20:33:08.302Z,16.52
2022-08-17T20:35:39.610Z,15.48
2022-08-17T20:38:05.950Z,15.93
2022-08-17T20:40:32.460Z,15.25
2022-08-17T20:42:58.981Z,16.10
2022-08-17T20:45:28.987Z,15.85
2022-08-17T20:48:20.093Z,16.02
2022-08-17T20:50:42.150Z,15.23
2022-08-17T20:53:08.570Z,14.32
2022-08-17T20:55:34.959Z,15.43
2022-08-17T20:58:01.369Z,14.98
2022-08-17T21:00:27.744Z,15.75
2022-08-17T21:02:54.293Z,14.95
2022-08-17T21:05:20.576Z,15.25
2022-08-17T21:07:47.007Z,15.95
2022-08-17T21:10:13.669Z,14.23
2022-08-17T21:12:40.480Z,15.80
2022-08-17T21:15:06.906Z,15.30
2022-08-17T21:17:33.289Z,15.13
2022-08-17T21:20:11.023Z,15.27
2022-08-17T21:22:38.189Z,15.40
2022-08-17T21:25:06.874Z,15.20
2022-08-17T21:27:33.233Z,16.02
2022-08-17T21:29:59.788Z,15.18
2022-08-17T21:32:26.823Z,14.43
2022-08-17T21:34:53.223Z,14.70
2022-08-17T21:37:19.726Z,14.73
2022-08-17T21:39:46.577Z,15.32
2022-08-17T21:42:12.968Z,14.85
2022-08-17T21:44:39.302Z,15.43
2022-08-17T21:47:05.989Z,13.90
2022-08-17T21:49:34.990Z,14.75
2022-08-17T21:52:04.510Z,14.45
2022-08-17T21:54:30.866Z,14.35
2022-08-17T21:56:57.257Z,15.07
2022-08-17T21:59:23.850Z,14.55
2022-08-17T22:04:20.400Z,14.60
2022-08-17T22:06:57.321Z,14.30
2022-08-17T22:09:24.223Z,14.30
2022-08-17T22:11:50.606Z,14.07
2022-08-17T22:14:18.318Z,14.23
2022-08-17T22:16:47.749Z,14.37
2022-08-17T22:19:14.154Z,14.23
2022-08-17T22:21:40.813Z,14.90
2022-08-17T22:24:07.234Z,14.73
2022-08-17T22:26:33.711Z,15.82
2022-08-17T22:29:00.472Z,13.68
2022-08-17T22:31:28.185Z,14.02
2022-08-17T22:33:54.783Z,13.70
2022-08-17T22:36:22.118Z,13.63
2022-08-17T22:38:48.544Z,14.05
2022-08-17T22:41:14.936Z,14.30
2022-08-17T22:43:41.518Z,14.15
2022-08-17T22:46:11.072Z,13.88
2022-08-17T22:48:37.393Z,14.13
2022-08-17T22:51:03.726Z,13.35
2022-08-17T22:53:39.422Z,13.98
2022-08-17T22:56:05.783Z,13.73
2022-08-17T22:58:32.244Z,13.65
2022-08-17T23:00:58.640Z,14.07
2022-08-17T23:03:25.068Z,14.75
2022-08-17T23:05:51.612Z,14.52
2022-08-17T23:08:17.962Z,13.95
2022-08-17T23:10:44.310Z,14.25
2022-08-17T23:13:10.881Z,14.73
2022-08-17T23:15:37.243Z,12.98
2022-08-17T23:18:03.837Z,14.35
2022-08-17T23:20:30.177Z,13.68
2022-08-17T23:22:56.733Z,13.13
2022-08-17T23:25:23.095Z,13.70
2022-08-17T23:27:49.784Z,14.05
2022-08-17T23:30:16.456Z,13.63
2022-08-17T23:32:47.389Z,13.93
2022-08-17T23:35:39.258Z,13.55
2022-08-17T23:38:07.131Z,13.05
2022-08-17T23:40:33.705Z,13.30
2022-08-17T23:43:00.046Z,13.90
2022-08-17T23:45:31.197Z,14.30
2022-08-17T23:47:58.040Z,13.38
2022-08-17T23:50:24.489Z,14.13
2022-08-17T23:52:56.288Z,13.00
2022-08-17T23:55:22.720Z,13.77
2022-08-17T23:57:49.444Z,13.52
